Time;durP1;ratioP1;P1;durP2;ratioP2;P2;SDS_P1;SDS_P2;PMS_P1;PMS_P2;Temp;Humidity;BMP_temperature;BMP_pressure;BME280_temperature;BME280_humidity;BME280_pressure;Samples;Min_cycle;Max_cycle;Signal;HPM_P1;HPM_P2
2023/06/09 00:00:38;;;;;;;22.00;14.60;;;;;;;-145.01;100.00;64805.59;5104472;28;20404;-62
2023/06/09 00:03:07;;;;;;;17.98;14.43;;;;;;;-145.01;100.00;64805.59;5102367;28;20054;-64
2023/06/09 00:05:34;;;;;;;19.52;15.68;;;;;;;-145.01;100.00;64805.59;5089387;28;20559;-63
2023/06/09 00:08:02;;;;;;;23.88;15.80;;;;;;;-145.01;100.00;64805.59;5098423;28;20048;-63
2023/06/09 00:10:30;;;;;;;24.63;16.17;;;;;;;-145.01;100.00;64805.59;5103827;28;20059;-64
2023/06/09 00:12:57;;;;;;;19.33;15.70;;;;;;;-145.01;100.00;64805.59;5098527;28;20144;-63
2023/06/09 00:15:25;;;;;;;20.67;15.68;;;;;;;-145.01;100.00;64805.59;5103467;28;20138;-63
2023/06/09 00:17:53;;;;;;;18.88;14.00;;;;;;;-145.01;100.00;64805.59;5099220;28;20044;-63
2023/06/09 00:20:22;;;;;;;20.20;16.02;;;;;;;-145.01;100.00;64805.59;5101383;28;20038;-63
2023/06/09 00:22:50;;;;;;;21.50;14.65;;;;;;;-145.01;100.00;64805.59;5105823;28;20048;-63
2023/06/09 00:25:20;;;;;;;21.40;13.20;;;;;;;-145.01;100.00;64805.59;5107856;28;20044;-63
2023/06/09 00:27:47;;;;;;;18.05;14.98;;;;;;;-145.01;100.00;64805.59;5103336;28;20047;-63
2023/06/09 00:30:15;;;;;;;19.23;15.10;;;;;;;-145.01;100.00;64805.59;5103632;28;20055;-63
2023/06/09 00:32:43;;;;;;;18.63;15.45;;;;;;;-145.01;100.00;64805.59;5099784;28;20131;-63
2023/06/09 00:35:12;;;;;;;23.40;15.77;;;;;;;-145.01;100.00;64805.59;5094871;28;20059;-63
2023/06/09 00:37:41;;;;;;;23.52;15.27;;;;;;;-145.01;100.00;64805.59;5107534;28;20050;-63
2023/06/09 00:40:09;;;;;;;20.95;16.13;;;;;;;-145.01;100.00;64805.59;5105467;28;20043;-63
2023/06/09 00:42:37;;;;;;;21.35;16.15;;;;;;;-145.01;100.00;64805.59;5101264;28;20062;-63
2023/06/09 00:45:05;;;;;;;21.85;16.10;;;;;;;-145.01;100.00;64805.59;5103604;28;20139;-63
2023/06/09 00:47:32;;;;;;;20.67;15.80;;;;;;;-145.01;100.00;64805.59;5101780;28;20122;-63
2023/06/09 00:49:59;;;;;;;24.55;16.23;;;;;;;-145.01;100.00;64805.59;5105811;28;20051;-63
2023/06/09 00:52:27;;;;;;;20.63;16.48;;;;;;;-145.01;100.00;64805.59;5099539;28;20055;-63
2023/06/09 00:54:56;;;;;;;18.80;16.17;;;;;;;-145.01;100.00;64805.59;5100313;28;20504;-63
2023/06/09 00:57:24;;;;;;;26.50;15.80;;;;;;;-145.01;100.00;64805.59;5104659;28;20036;-63
2023/06/09 00:59:51;;;;;;;17.55;14.45;;;;;;;-145.01;100.00;64805.59;5097779;28;20433;-63
2023/06/09 01:02:20;;;;;;;24.92;14.23;;;;;;;-145.01;100.00;64805.59;5097331;28;20072;-63
2023/06/09 01:04:50;;;;;;;18.80;13.80;;;;;;;-145.01;100.00;64805.59;5098295;28;20048;-63
2023/06/09 01:07:24;;;;;;;25.00;16.05;;;;;;;-145.01;100.00;64805.59;5101403;28;20043;-63
2023/06/09 01:09:55;;;;;;;20.38;15.85;;;;;;;-145.01;100.00;64805.59;5106258;28;20126;-63
2023/06/09 01:12:29;;;;;;;21.38;16.52;;;;;;;-145.01;100.00;64805.59;5104962;28;20047;-63
2023/06/09 01:15:02;;;;;;;21.40;16.88;;;;;;;-145.01;100.00;64805.59;5095034;28;20116;-63
2023/06/09 01:17:29;;;;;;;21.83;16.02;;;;;;;-145.01;100.00;64805.59;5086373;28;20043;-63
2023/06/09 01:20:04;;;;;;;20.17;15.52;;;;;;;-145.01;100.00;64805.59;5107717;28;20383;-63
2023/06/09 01:22:38;;;;;;;22.67;14.75;;;;;;;-145.01;100.00;64805.59;5097776;28;20059;-63
2023/06/09 01:25:20;;;;;;;22.92;14.65;;;;;;;-145.01;100.00;64805.59;5097674;28;20159;-63
2023/06/09 01:27:48;;;;;;;28.20;17.85;;;;;;;-145.01;100.00;64805.59;5096043;28;20063;-63
2023/06/09 01:30:16;;;;;;;24.75;17.83;;;;;;;-145.01;100.00;64805.59;5104150;28;20084;-63
2023/06/09 01:32:44;;;;;;;29.52;19.20;;;;;;;-145.01;100.00;64805.59;5098758;28;20524;-63
2023/06/09 01:35:11;;;;;;;22.55;16.55;;;;;;;-145.01;100.00;64805.59;5101197;28;20032;-63
2023/06/09 01:37:39;;;;;;;17.75;15.38;;;;;;;-145.01;100.00;64805.59;5098411;28;20468;-62
2023/06/09 01:40:08;;;;;;;22.48;14.00;;;;;;;-145.01;100.00;64805.59;5100202;28;20069;-62
2023/06/09 01:42:38;;;;;;;21.50;13.88;;;;;;;-145.01;100.00;64805.59;5097865;28;20062;-62
2023/06/09 01:45:06;;;;;;;25.75;18.90;;;;;;;-145.01;100.00;64805.59;5093048;28;20074;-64
2023/06/09 01:47:34;;;;;;;25.45;16.58;;;;;;;-145.01;100.00;64805.59;5097068;28;20041;-64
2023/06/09 01:50:03;;;;;;;22.60;16.15;;;;;;;-145.01;100.00;64805.59;5100199;28;20142;-64
2023/06/09 01:52:38;;;;;;;27.38;16.33;;;;;;;-145.01;100.00;64805.59;5104578;28;20130;-63
2023/06/09 01:55:09;;;;;;;20.65;14.43;;;;;;;-145.01;100.00;64805.59;5104638;28;20405;-64
2023/06/09 01:57:41;;;;;;;22.55;15.15;;;;;;;-145.01;100.00;64805.59;5102917;28;20391;-62
2023/06/09 02:00:09;;;;;;;25.80;15.68;;;;;;;-145.01;100.00;64805.59;5086215;28;20573;-64
2023/06/09 02:02:42;;;;;;;29.63;14.70;;;;;;;-145.01;100.00;64805.59;5098498;28;20379;-64
2023/06/09 02:05:11;;;;;;;25.85;15.25;;;;;;;-145.01;100.00;64805.59;5095823;28;20071;-62
2023/06/09 02:07:39;;;;;;;20.30;14.73;;;;;;;-145.01;100.00;64805.59;5096609;28;20032;-62
2023/06/09 02:10:08;;;;;;;22.60;15.63;;;;;;;-145.01;100.00;64805.59;5101561;28;20044;-62
2023/06/09 02:12:36;;;;;;;24.80;17.50;;;;;;;-145.01;100.00;64805.59;5092285;28;20647;-62
2023/06/09 02:15:06;;;;;;;24.05;16.85;;;;;;;-145.01;100.00;64805.59;5093727;28;20078;-62
2023/06/09 02:17:34;;;;;;;25.27;17.02;;;;;;;-145.01;100.00;64805.59;5098325;28;20123;-63
2023/06/09 02:20:05;;;;;;;27.48;16.50;;;;;;;-145.01;100.00;64805.59;5103795;28;20054;-63
2023/06/09 02:22:33;;;;;;;30.73;18.42;;;;;;;-145.01;100.00;64805.59;5103607;28;20089;-63
2023/06/09 02:25:00;;;;;;;26.00;18.98;;;;;;;-145.01;100.00;64805.59;5097309;28;20519;-63
2023/06/09 02:27:28;;;;;;;25.80;18.13;;;;;;;-145.01;100.00;64805.59;5100351;28;20303;-63
2023/06/09 02:29:55;;;;;;;27.30;19.25;;;;;;;-145.01;100.00;64805.59;5105242;28;20103;-63
2023/06/09 02:32:24;;;;;;;28.33;18.52;;;;;;;-145.01;100.00;64805.59;5100830;28;20485;-63
2023/06/09 02:34:53;;;;;;;26.92;18.55;;;;;;;-145.01;100.00;64805.59;5095834;28;20055;-63
2023/06/09 02:37:20;;;;;;;24.80;16.85;;;;;;;-145.01;100.00;64805.59;5096852;28;20050;-63
2023/06/09 02:39:48;;;;;;;24.27;15.18;;;;;;;-145.01;100.00;64805.59;5103928;28;20109;-63
2023/06/09 02:42:15;;;;;;;24.92;15.88;;;;;;;-145.01;100.00;64805.59;5094442;28;20040;-63
2023/06/09 02:44:48;;;;;;;19.83;16.38;;;;;;;-145.01;100.00;64805.59;5105449;28;20044;-63
2023/06/09 02:47:16;;;;;;;22.55;16.38;;;;;;;-145.01;100.00;64805.59;5097797;28;20047;-63
2023/06/09 02:49:45;;;;;;;20.80;14.30;;;;;;;-145.01;100.00;64805.59;5092745;28;20040;-63
2023/06/09 02:52:13;;;;;;;19.67;14.60;;;;;;;-145.01;100.00;64805.59;5095379;28;20048;-63
2023/06/09 02:54:40;;;;;;;26.08;19.02;;;;;;;-145.01;100.00;64805.59;5097049;28;20055;-63
2023/06/09 02:57:09;;;;;;;30.30;20.70;;;;;;;-145.01;100.00;64805.59;5099596;28;20113;-63
2023/06/09 02:59:39;;;;;;;26.20;22.15;;;;;;;-145.01;100.00;64805.59;5095092;28;20040;-63
2023/06/09 03:02:06;;;;;;;28.92;21.75;;;;;;;-145.01;100.00;64805.59;5098524;28;20068;-63
2023/06/09 03:04:35;;;;;;;29.35;20.88;;;;;;;-145.01;100.00;64805.59;5096039;28;20447;-63
2023/06/09 03:07:04;;;;;;;21.63;17.58;;;;;;;-145.01;100.00;64805.59;5096408;28;20046;-63
2023/06/09 03:09:31;;;;;;;27.58;19.55;;;;;;;-145.01;100.00;64805.59;5094600;28;20044;-63
2023/06/09 03:12:04;;;;;;;30.17;20.42;;;;;;;-145.01;100.00;64805.59;5098448;28;20185;-63
2023/06/09 03:14:33;;;;;;;27.35;20.65;;;;;;;-145.01;100.00;64805.59;5097765;28;20042;-63
2023/06/09 03:17:01;;;;;;;26.60;20.27;;;;;;;-145.01;100.00;64805.59;5085429;28;20050;-63
2023/06/09 03:19:29;;;;;;;34.88;20.20;;;;;;;-145.01;100.00;64805.59;5095811;28;20131;-63
2023/06/09 03:21:57;;;;;;;33.40;20.10;;;;;;;-145.01;100.00;64805.59;5099465;28;20058;-62
2023/06/09 03:24:27;;;;;;;31.80;20.67;;;;;;;-145.01;100.00;64805.59;5097841;28;20791;-63
2023/06/09 03:26:54;;;;;;;26.55;19.92;;;;;;;-145.01;100.00;64805.59;5105261;28;20043;-63
2023/06/09 03:29:23;;;;;;;30.70;20.67;;;;;;;-145.01;100.00;64805.59;5100523;28;20050;-63
2023/06/09 03:31:51;;;;;;;23.70;19.17;;;;;;;-145.01;100.00;64805.59;5095256;28;20035;-62
2023/06/09 03:34:19;;;;;;;23.88;18.35;;;;;;;-145.01;100.00;64805.59;5100289;28;20044;-62
2023/06/09 03:36:46;;;;;;;23.67;17.80;;;;;;;-145.01;100.00;64805.59;5101766;28;20043;-64
2023/06/09 03:39:14;;;;;;;31.08;18.58;;;;;;;-145.01;100.00;64805.59;5092483;28;20090;-64
2023/06/09 03:41:43;;;;;;;31.05;17.85;;;;;;;-145.01;100.00;64805.59;5103503;28;20066;-64
2023/06/09 03:44:11;;;;;;;28.20;17.50;;;;;;;-145.01;100.00;64805.59;5094133;28;20040;-63
2023/06/09 03:46:38;;;;;;;21.58;16.33;;;;;;;-145.01;100.00;64805.59;5093750;28;20072;-64
2023/06/09 03:49:05;;;;;;;20.50;16.45;;;;;;;-145.01;100.00;64805.59;5092850;28;20067;-64
2023/06/09 03:51:33;;;;;;;23.73;15.70;;;;;;;-145.01;100.00;64805.59;5099103;28;20044;-64
2023/06/09 03:54:02;;;;;;;19.58;15.63;;;;;;;-145.01;100.00;64805.59;5095704;28;20439;-64
2023/06/09 03:56:29;;;;;;;22.05;14.73;;;;;;;-145.01;100.00;64805.59;5093301;28;20062;-61
2023/06/09 03:58:58;;;;;;;20.60;13.20;;;;;;;-145.01;100.00;64805.59;5099434;28;20116;-62
2023/06/09 04:01:27;;;;;;;19.63;12.68;;;;;;;-145.01;100.00;64805.59;5076340;28;20131;-64
2023/06/09 04:03:55;;;;;;;18.60;12.55;;;;;;;-145.01;100.00;64805.59;5105778;28;20043;-63
2023/06/09 04:06:22;;;;;;;21.25;11.77;;;;;;;-145.01;100.00;64805.59;5093603;28;20101;-63
2023/06/09 04:08:51;;;;;;;19.02;9.77;;;;;;;-145.01;100.00;64805.59;5099706;28;20055;-63
2023/06/09 04:11:19;;;;;;;9.15;7.60;;;;;;;-145.01;100.00;64805.59;5100175;28;20051;-63
2023/06/09 04:13:47;;;;;;;15.23;8.75;;;;;;;-145.01;100.00;64805.59;5103515;28;20520;-63
2023/06/09 04:16:17;;;;;;;18.73;8.82;;;;;;;-145.01;100.00;64805.59;5093069;28;20481;-63
2023/06/09 04:18:46;;;;;;;10.87;7.70;;;;;;;-145.01;100.00;64805.59;5103127;28;20387;-61
2023/06/09 04:21:14;;;;;;;16.05;8.52;;;;;;;-145.01;100.00;64805.59;5103476;28;20032;-63
2023/06/09 04:23:42;;;;;;;17.58;8.40;;;;;;;-145.01;100.00;64805.59;5105709;28;20040;-63
2023/06/09 04:26:13;;;;;;;;;;;;;;;-145.01;100.00;64805.59;5107236;28;20043;-61
2023/06/09 04:28:42;;;;;;;15.45;8.43;;;;;;;-145.01;100.00;64805.59;5095667;28;20420;-63
2023/06/09 04:31:11;;;;;;;19.33;8.45;;;;;;;-145.01;100.00;64805.59;5101152;28;20047;-63
2023/06/09 04:33:40;;;;;;;15.27;8.43;;;;;;;-145.01;100.00;64805.59;5093237;28;20139;-63
2023/06/09 04:36:08;;;;;;;14.05;8.85;;;;;;;-145.01;100.00;64805.59;5105689;28;20054;-63
2023/06/09 04:38:36;;;;;;;11.32;9.10;;;;;;;-145.01;100.00;64805.59;5100658;28;20509;-63
2023/06/09 04:41:07;;;;;;;16.05;9.73;;;;;;;-145.01;100.00;64805.59;5105101;28;20069;-63
2023/06/09 04:43:39;;;;;;;11.98;8.18;;;;;;;-145.01;100.00;64805.59;5104967;28;20051;-64
2023/06/09 04:46:12;;;;;;;14.95;8.52;;;;;;;-145.01;100.00;64805.59;5101999;28;20094;-63
2023/06/09 04:48:44;;;;;;;15.93;8.35;;;;;;;-145.01;100.00;64805.59;5103039;28;20048;-63
2023/06/09 04:51:12;;;;;;;11.95;8.63;;;;;;;-145.01;100.00;64805.59;5095842;28;20043;-63
2023/06/09 04:53:46;;;;;;;13.50;9.45;;;;;;;-145.01;100.00;64805.59;5101307;28;20056;-63
2023/06/09 04:56:16;;;;;;;14.68;9.48;;;;;;;-145.01;100.00;64805.59;5102803;28;20047;-63
2023/06/09 04:58:44;;;;;;;15.32;8.82;;;;;;;-145.01;100.00;64805.59;5101366;28;20498;-63
2023/06/09 05:01:13;;;;;;;14.20;9.20;;;;;;;-145.01;100.00;64805.59;5099864;28;20109;-63
2023/06/09 05:03:45;;;;;;;11.27;8.00;;;;;;;-145.01;100.00;64805.59;5102786;28;20044;-63
2023/06/09 05:06:13;;;;;;;13.60;8.30;;;;;;;-145.01;100.00;64805.59;5097899;28;20043;-63
2023/06/09 05:08:40;;;;;;;13.60;8.75;;;;;;;-145.01;100.00;64805.59;5100805;28;20046;-63
2023/06/09 05:11:09;;;;;;;12.50;8.35;;;;;;;-145.01;100.00;64805.59;5099750;28;20044;-63
2023/06/09 05:13:36;;;;;;;13.52;7.70;;;;;;;-145.01;100.00;64805.59;5097660;28;20043;-63
2023/06/09 05:16:05;;;;;;;11.90;7.88;;;;;;;-145.01;100.00;64805.59;5100811;28;20078;-62
2023/06/09 05:18:33;;;;;;;14.25;8.25;;;;;;;-145.01;100.00;64805.59;5106328;28;20044;-62
2023/06/09 05:21:03;;;;;;;11.18;7.18;;;;;;;-145.01;100.00;64805.59;5102054;28;20051;-62
2023/06/09 05:23:33;;;;;;;12.10;7.90;;;;;;;-145.01;100.00;64805.59;5105054;28;20031;-63
2023/06/09 05:26:00;;;;;;;11.15;7.55;;;;;;;-145.01;100.00;64805.59;5102954;28;20439;-63
2023/06/09 05:28:28;;;;;;;15.70;8.00;;;;;;;-145.01;100.00;64805.59;5099058;28;20120;-64
2023/06/09 05:30:56;;;;;;;11.90;7.60;;;;;;;-145.01;100.00;64805.59;5094315;28;20044;-62
2023/06/09 05:33:23;;;;;;;12.00;7.65;;;;;;;-145.01;100.00;64805.59;5103824;28;20035;-63
2023/06/09 05:35:54;;;;;;;13.57;7.65;;;;;;;-145.01;100.00;64805.59;5104697;28;20048;-63
2023/06/09 05:38:25;;;;;;;13.02;8.27;;;;;;;-145.01;100.00;64805.59;5104272;28;20497;-63
2023/06/09 05:40:53;;;;;;;11.15;7.70;;;;;;;-145.01;100.00;64805.59;5100815;28;20468;-65
2023/06/09 05:43:21;;;;;;;11.57;8.05;;;;;;;-145.01;100.00;64805.59;5095815;28;20430;-63
2023/06/09 05:45:48;;;;;;;9.20;7.30;;;;;;;-145.01;100.00;64805.59;5105333;28;20036;-65
2023/06/09 05:48:16;;;;;;;10.43;7.60;;;;;;;-145.01;100.00;64805.59;5103014;28;20097;-63
2023/06/09 05:50:43;;;;;;;12.27;7.80;;;;;;;-145.01;100.00;64805.59;5100672;28;20069;-62
2023/06/09 05:53:11;;;;;;;13.88;7.60;;;;;;;-145.01;100.00;64805.59;5101543;28;20536;-62
2023/06/09 05:55:40;;;;;;;15.45;8.48;;;;;;;-145.01;100.00;64805.59;5100636;28;20131;-62
2023/06/09 05:58:08;;;;;;;11.65;7.47;;;;;;;-145.01;100.00;64805.59;5099841;28;20070;-62
2023/06/09 06:00:36;;;;;;;15.88;7.43;;;;;;;-145.01;100.00;64805.59;5094753;28;20074;-62
2023/06/09 06:03:06;;;;;;;13.57;8.18;;;;;;;-145.01;100.00;64805.59;5094898;28;20481;-63
2023/06/09 06:05:33;;;;;;;15.82;9.40;;;;;;;-145.01;100.00;64805.59;5097239;28;20044;-62
2023/06/09 06:08:01;;;;;;;12.63;8.52;;;;;;;-145.01;100.00;64805.59;5100950;28;20052;-62
2023/06/09 06:10:28;;;;;;;15.50;9.63;;;;;;;-145.01;100.00;64805.59;5099199;28;20054;-62
2023/06/09 06:13:01;;;;;;;15.63;9.20;;;;;;;-145.01;100.00;64805.59;5092534;28;20187;-62
2023/06/09 06:15:28;;;;;;;21.40;8.93;;;;;;;-145.01;100.00;64805.59;5096356;28;20047;-62
2023/06/09 06:17:56;;;;;;;16.75;8.85;;;;;;;-145.01;100.00;64805.59;5096544;28;20130;-62
2023/06/09 06:20:23;;;;;;;25.80;9.05;;;;;;;-145.01;100.00;64805.59;5103282;28;20063;-62
2023/06/09 06:22:51;;;;;;;26.65;9.05;;;;;;;-145.01;100.00;64805.59;5102937;28;20051;-62
2023/06/09 06:25:18;;;;;;;19.65;8.90;;;;;;;-145.01;100.00;64805.59;5104927;28;20366;-62
2023/06/09 06:27:46;;;;;;;18.02;8.68;;;;;;;-145.01;100.00;64805.59;5102549;28;20058;-62
2023/06/09 06:30:16;;;;;;;22.27;8.43;;;;;;;-145.01;100.00;64805.59;5098390;27;20126;-62
2023/06/09 06:32:50;;;;;;;12.70;8.23;;;;;;;-145.01;100.00;64805.59;5102056;28;20050;-62
2023/06/09 06:35:25;;;;;;;12.88;8.82;;;;;;;-145.01;100.00;64805.59;5098162;28;20040;-63
2023/06/09 06:37:53;;;;;;;15.68;8.10;;;;;;;-145.01;100.00;64805.59;5101001;28;20127;-62
2023/06/09 06:40:20;;;;;;;13.60;8.43;;;;;;;-145.01;100.00;64805.59;5099612;28;20043;-62
2023/06/09 06:42:49;;;;;;;14.15;8.20;;;;;;;-145.01;100.00;64805.59;5098528;28;20055;-63
2023/06/09 06:45:26;;;;;;;14.75;8.15;;;;;;;-145.01;100.00;64805.59;5100541;28;20044;-63
2023/06/09 06:47:54;;;;;;;11.68;7.93;;;;;;;-145.01;100.00;64805.59;5100060;28;20138;-62
2023/06/09 06:50:22;;;;;;;13.65;8.20;;;;;;;-145.01;100.00;64805.59;5103798;28;20056;-62
2023/06/09 06:52:49;;;;;;;16.57;8.40;;;;;;;-145.01;100.00;64805.59;5098129;28;20134;-62
2023/06/09 06:55:17;;;;;;;23.87;8.47;;;;;;;-145.01;100.00;64805.59;5094996;28;20036;-63
2023/06/09 06:57:44;;;;;;;13.93;7.72;;;;;;;-145.01;100.00;64805.59;5095196;28;20071;-62
2023/06/09 07:00:14;;;;;;;10.18;7.72;;;;;;;-145.01;100.00;64805.59;5100033;28;20568;-62
2023/06/09 07:02:43;;;;;;;16.45;7.57;;;;;;;-145.01;100.00;64805.59;5093763;28;20551;-63
2023/06/09 07:05:10;;;;;;;14.65;7.60;;;;;;;-145.01;100.00;64805.59;5093310;28;20043;-62
2023/06/09 07:07:38;;;;;;;17.43;7.17;;;;;;;-145.01;100.00;64805.59;5097856;28;20126;-62
2023/06/09 07:10:07;;;;;;;13.20;7.20;;;;;;;-145.01;100.00;64805.59;5093534;28;20383;-63
2023/06/09 07:12:34;;;;;;;12.00;7.60;;;;;;;-145.01;100.00;64805.59;5097318;28;20044;-63
2023/06/09 07:15:02;;;;;;;9.07;6.40;;;;;;;-145.01;100.00;64805.59;5099918;28;20578;-62
2023/06/09 07:17:29;;;;;;;14.27;5.72;;;;;;;-145.01;100.00;64805.59;5101777;28;20131;-62
2023/06/09 07:19:58;;;;;;;9.85;6.38;;;;;;;-145.01;100.00;64805.59;5099275;28;20070;-62
2023/06/09 07:22:26;;;;;;;14.40;6.10;;;;;;;-145.01;100.00;64805.59;5103550;28;20504;-62
2023/06/09 07:24:54;;;;;;;16.20;6.07;;;;;;;-145.01;100.00;64805.59;5100567;28;20052;-62
2023/06/09 07:27:21;;;;;;;12.98;6.25;;;;;;;-145.01;100.00;64805.59;5103660;28;20048;-62
2023/06/09 07:29:49;;;;;;;12.20;6.32;;;;;;;-145.01;100.00;64805.59;5099751;28;20054;-62
2023/06/09 07:32:17;;;;;;;11.82;6.25;;;;;;;-145.01;100.00;64805.59;5098635;28;20058;-62
2023/06/09 07:34:45;;;;;;;17.65;6.30;;;;;;;-145.01;100.00;64805.59;5096705;28;20036;-63
2023/06/09 07:37:14;;;;;;;11.18;6.20;;;;;;;-145.01;100.00;64805.59;5098766;28;20058;-63
2023/06/09 07:39:41;;;;;;;14.43;5.97;;;;;;;-145.01;100.00;64805.59;5104092;28;20039;-63
2023/06/09 07:42:09;;;;;;;11.63;5.83;;;;;;;-145.01;100.00;64805.59;5099319;28;20105;-62
2023/06/09 07:44:36;;;;;;;6.40;4.30;;;;;;;-145.01;100.00;64805.59;5097989;28;20040;-63
2023/06/09 07:47:04;;;;;;;6.43;3.77;;;;;;;-145.01;100.00;64805.59;5095835;28;20040;-62
2023/06/09 07:49:31;;;;;;;8.30;4.88;;;;;;;-145.01;100.00;64805.59;5100961;28;20124;-62
2023/06/09 07:52:00;;;;;;;14.30;5.13;;;;;;;-145.01;100.00;64805.59;5104244;28;20048;-62
2023/06/09 07:54:28;;;;;;;11.02;4.20;;;;;;;-145.01;100.00;64805.59;5097836;28;20135;-62
2023/06/09 07:56:56;;;;;;;6.20;4.20;;;;;;;-145.01;100.00;64805.59;5101447;28;20044;-62
2023/06/09 07:59:24;;;;;;;6.90;4.10;;;;;;;-145.01;100.00;64805.59;5099116;28;20134;-62
2023/06/09 08:01:51;;;;;;;7.40;4.07;;;;;;;-145.01;100.00;64805.59;5095695;28;20500;-62
2023/06/09 08:04:18;;;;;;;6.18;4.07;;;;;;;-145.01;100.00;64805.59;5101400;28;20117;-62
2023/06/09 08:06:48;;;;;;;7.50;4.20;;;;;;;-145.01;100.00;64805.59;5100906;28;20044;-62
2023/06/09 08:09:16;;;;;;;11.18;3.85;;;;;;;-145.01;100.00;64805.59;5103422;28;20075;-62
2023/06/09 08:11:45;;;;;;;9.02;4.25;;;;;;;-145.01;100.00;64805.59;5101031;28;20126;-61
2023/06/09 08:14:13;;;;;;;5.82;4.45;;;;;;;-145.01;100.00;64805.59;5105747;28;20100;-62
2023/06/09 08:16:41;;;;;;;8.48;4.22;;;;;;;-145.01;100.00;64805.59;5097617;28;20455;-62
2023/06/09 08:19:08;;;;;;;6.45;4.20;;;;;;;-145.01;100.00;64805.59;5098513;28;20070;-61
2023/06/09 08:21:42;;;;;;;7.57;4.25;;;;;;;-145.01;100.00;64805.59;5098672;28;20402;-61
2023/06/09 08:24:09;;;;;;;7.95;4.30;;;;;;;-145.01;100.00;64805.59;5103377;28;20833;-61
2023/06/09 08:26:37;;;;;;;5.68;4.40;;;;;;;-145.01;100.00;64805.59;5091960;28;20427;-62
2023/06/09 08:29:07;;;;;;;5.80;4.05;;;;;;;-145.01;100.00;64805.59;5097802;28;20402;-61
2023/06/09 08:31:36;;;;;;;6.15;4.15;;;;;;;-145.01;100.00;64805.59;5104366;28;20039;-62
2023/06/09 08:34:04;;;;;;;7.32;4.68;;;;;;;-145.01;100.00;64805.59;5097552;28;20450;-61
2023/06/09 08:36:32;;;;;;;6.50;4.47;;;;;;;-145.01;100.00;64805.59;5105225;27;20071;-61
2023/06/09 08:39:02;;;;;;;7.35;4.70;;;;;;;-145.01;100.00;64805.59;5102538;28;20043;-61
2023/06/09 08:41:32;;;;;;;7.95;3.88;;;;;;;-145.01;100.00;64805.59;5100318;28;20040;-62
2023/06/09 08:43:59;;;;;;;;;;;;;;;-145.01;100.00;64805.59;5100222;28;20490;-61
2023/06/09 08:46:28;;;;;;;5.70;3.90;;;;;;;-145.01;100.00;64805.59;5097259;28;19962;-61
2023/06/09 08:48:58;;;;;;;5.47;4.15;;;;;;;-145.01;100.00;64805.59;5103052;28;20040;-62
2023/06/09 08:51:29;;;;;;;7.75;3.90;;;;;;;-145.01;100.00;64805.59;5100626;28;20277;-62
2023/06/09 08:53:56;;;;;;;4.70;3.55;;;;;;;-145.01;100.00;64805.59;5100715;28;20126;-62
2023/06/09 08:56:24;;;;;;;4.70;3.70;;;;;;;-145.01;100.00;64805.59;5101332;28;20428;-61
2023/06/09 08:58:55;;;;;;;8.55;4.35;;;;;;;-145.01;100.00;64805.59;5094672;28;20043;-61
2023/06/09 09:01:23;;;;;;;5.90;4.30;;;;;;;-145.01;100.00;64805.59;5095730;28;20047;-61
2023/06/09 09:03:55;;;;;;;5.70;4.03;;;;;;;-145.01;100.00;64805.59;5102803;28;20063;-61
2023/06/09 09:06:25;;;;;;;5.45;4.10;;;;;;;-145.01;100.00;64805.59;5105274;28;20132;-61
2023/06/09 09:08:55;;;;;;;7.60;4.50;;;;;;;-145.01;100.00;64805.59;5137659;27;20031;-61
2023/06/09 09:11:25;;;;;;;5.38;4.10;;;;;;;-145.01;100.00;64805.59;5097429;28;20048;-62
2023/06/09 09:13:53;;;;;;;7.55;4.18;;;;;;;-145.01;100.00;64805.59;5099253;28;20040;-62
2023/06/09 09:16:20;;;;;;;6.45;4.20;;;;;;;-145.01;100.00;64805.59;5099938;28;20067;-62
2023/06/09 09:18:48;;;;;;;7.00;3.80;;;;;;;-145.01;100.00;64805.59;5106329;28;20117;-62
2023/06/09 09:21:24;;;;;;;5.53;4.20;;;;;;;-145.01;100.00;64805.59;5105546;28;20489;-62
2023/06/09 09:23:58;;;;;;;8.13;4.13;;;;;;;-145.01;100.00;64805.59;5105555;28;20096;-63
2023/06/09 09:26:29;;;;;;;6.40;4.28;;;;;;;-145.01;100.00;64805.59;5105564;28;20051;-61
2023/06/09 09:28:57;;;;;;;6.85;4.38;;;;;;;-145.01;100.00;64805.59;5096691;28;20040;-63
2023/06/09 09:31:33;;;;;;;7.38;4.88;;;;;;;-145.01;100.00;64805.59;5102577;28;20050;-63
2023/06/09 09:34:01;;;;;;;9.63;4.10;;;;;;;-145.01;100.00;64805.59;5095668;28;20044;-62
2023/06/09 09:36:30;;;;;;;7.20;4.40;;;;;;;-145.01;100.00;64805.59;5107419;28;20380;-63
2023/06/09 09:39:00;;;;;;;6.85;4.20;;;;;;;-145.01;100.00;64805.59;5098575;28;20128;-61
2023/06/09 09:41:27;;;;;;;11.02;4.40;;;;;;;-145.01;100.00;64805.59;5100151;28;20040;-63
2023/06/09 09:43:57;;;;;;;8.38;5.28;;;;;;;-145.01;100.00;64805.59;5097571;28;20040;-61
2023/06/09 09:46:25;;;;;;;5.88;4.45;;;;;;;-145.01;100.00;64805.59;5105024;28;20099;-61
2023/06/09 09:48:54;;;;;;;7.45;4.20;;;;;;;-145.01;100.00;64805.59;5099792;28;20072;-62
2023/06/09 09:51:22;;;;;;;5.93;4.30;;;;;;;-145.01;100.00;64805.59;5104038;28;20146;-64
2023/06/09 09:53:51;;;;;;;9.98;4.65;;;;;;;-145.01;100.00;64805.59;5101492;28;20044;-64
2023/06/09 09:56:21;;;;;;;7.65;4.50;;;;;;;-145.01;100.00;64805.59;5098607;28;20588;-63
2023/06/09 09:58:49;;;;;;;5.45;4.07;;;;;;;-145.01;100.00;64805.59;5098143;28;20510;-63
2023/06/09 10:01:16;;;;;;;6.20;4.72;;;;;;;-145.01;100.00;64805.59;5100255;28;20044;-63
2023/06/09 10:03:44;;;;;;;9.38;4.53;;;;;;;-145.01;100.00;64805.59;5101599;28;20147;-63
2023/06/09 10:06:13;;;;;;;7.50;4.25;;;;;;;-145.01;100.00;64805.59;5097448;28;20042;-63
2023/06/09 10:08:42;;;;;;;8.00;4.30;;;;;;;-145.01;100.00;64805.59;5098402;28;20048;-63
2023/06/09 10:11:12;;;;;;;6.00;4.22;;;;;;;-145.01;100.00;64805.59;5100860;28;20043;-63
2023/06/09 10:13:39;;;;;;;7.65;4.47;;;;;;;-145.01;100.00;64805.59;5099856;28;20057;-64
2023/06/09 10:16:07;;;;;;;5.72;4.75;;;;;;;-145.01;100.00;64805.59;5098673;28;20466;-63
2023/06/09 10:18:34;;;;;;;9.05;4.25;;;;;;;-145.01;100.00;64805.59;5096964;28;20423;-63
2023/06/09 10:21:02;;;;;;;8.13;4.93;;;;;;;-145.01;100.00;64805.59;5099392;28;20051;-63
2023/06/09 10:23:29;;;;;;;5.55;4.22;;;;;;;-145.01;100.00;64805.59;5102961;28;20489;-63
2023/06/09 10:25:57;;;;;;;9.63;4.97;;;;;;;-145.01;100.00;64805.59;5095298;28;20562;-63
2023/06/09 10:28:26;;;;;;;6.57;4.68;;;;;;;-145.01;100.00;64805.59;5096767;28;20051;-63
2023/06/09 10:30:53;;;;;;;6.88;4.25;;;;;;;-145.01;100.00;64805.59;5097038;28;20044;-63
2023/06/09 10:33:24;;;;;;;6.57;4.03;;;;;;;-145.01;100.00;64805.59;5102982;28;20060;-63
2023/06/09 10:35:56;;;;;;;7.47;4.22;;;;;;;-145.01;100.00;64805.59;5100416;28;20048;-63
2023/06/09 10:38:25;;;;;;;9.88;4.68;;;;;;;-145.01;100.00;64805.59;5103118;28;20497;-64
2023/06/09 10:40:58;;;;;;;11.45;4.35;;;;;;;-145.01;100.00;64805.59;5096075;28;20044;-63
2023/06/09 10:43:51;;;;;;;5.97;4.28;;;;;;;-145.01;100.00;64805.59;5099561;28;20097;-63
2023/06/09 10:46:19;;;;;;;7.95;4.10;;;;;;;-145.01;100.00;64805.59;5096732;28;20051;-63
2023/06/09 10:48:48;;;;;;;9.30;4.60;;;;;;;-145.01;100.00;64805.59;5097400;28;20488;-63
2023/06/09 10:51:37;;;;;;;8.48;4.07;;;;;;;-145.01;100.00;64805.59;5094094;28;20047;-64
2023/06/09 10:54:22;;;;;;;8.02;4.20;;;;;;;-145.01;100.00;64805.59;5094685;28;20048;-63
2023/06/09 10:56:52;;;;;;;5.78;4.60;;;;;;;-145.01;100.00;64805.59;5098826;28;20052;-63
2023/06/09 11:00:11;;;;;;;14.35;4.93;;;;;;;-145.01;100.00;64805.59;5105480;28;20066;-63
2023/06/09 11:02:41;;;;;;;5.50;3.90;;;;;;;-145.01;100.00;64805.59;5100696;28;20040;-62
2023/06/09 11:05:08;;;;;;;7.57;4.05;;;;;;;-145.01;100.00;64805.59;5099030;28;20046;-62
2023/06/09 11:07:44;;;;;;;8.68;4.45;;;;;;;-145.01;100.00;64805.59;5099294;28;20048;-62
2023/06/09 11:10:36;;;;;;;6.43;4.22;;;;;;;-145.01;100.00;64805.59;5100804;28;20156;-62